createdAt,value
2022-11-29T00:00:03.000Z,961.51
2022-11-29T00:00:59.203Z,961.52
2022-11-29T00:01:59.263Z,961.50
2022-11-29T00:02:59.174Z,961.45
2022-11-29T00:03:59.058Z,961.47
2022-11-29T00:04:59.041Z,961.48
2022-11-29T00:05:58.968Z,961.48
2022-11-29T00:06:58.927Z,961.52
2022-11-29T00:07:58.877Z,961.52
2022-11-29T00:08:58.884Z,961.47
2022-11-29T00:09:58.787Z,961.46
2022-11-29T00:10:58.743Z,961.46
2022-11-29T00:11:58.697Z,961.44
2022-11-29T00:12:58.651Z,961.45
2022-11-29T00:13:58.603Z,961.41
2022-11-29T00:14:58.584Z,961.40
2022-11-29T00:15:58.515Z,961.40
2022-11-29T00:16:58.519Z,961.43
2022-11-29T00:17:58.423Z,961.43
2022-11-29T00:18:58.417Z,961.40
2022-11-29T00:19:58.328Z,961.40
2022-11-29T00:20:58.285Z,961.39
2022-11-29T00:21:58.240Z,961.39
2022-11-29T00:22:58.197Z,961.42
2022-11-29T00:23:58.146Z,961.38
2022-11-29T00:24:58.118Z,961.39
2022-11-29T00:25:58.060Z,961.37
2022-11-29T00:26:58.011Z,961.38
2022-11-29T00:27:57.970Z,961.39
2022-11-29T00:28:57.916Z,961.41
2022-11-29T00:29:57.878Z,961.39
2022-11-29T00:30:57.886Z,961.41
2022-11-29T00:31:57.786Z,961.41
2022-11-29T00:32:57.741Z,961.41
2022-11-29T00:33:57.689Z,961.43
2022-11-29T00:34:59.604Z,961.42
2022-11-29T00:35:57.598Z,961.41
2022-11-29T00:36:57.569Z,961.38
2022-11-29T00:37:57.537Z,961.39
2022-11-29T00:38:57.466Z,961.43
2022-11-29T00:39:57.413Z,961.38
2022-11-29T00:40:57.371Z,961.41
2022-11-29T00:41:57.327Z,961.37
2022-11-29T00:42:57.329Z,961.39
2022-11-29T00:43:57.233Z,961.38
2022-11-29T00:44:57.185Z,961.36
2022-11-29T00:45:57.161Z,961.36
2022-11-29T00:46:57.098Z,961.39
2022-11-29T00:47:57.046Z,961.36
2022-11-29T00:48:57.013Z,961.35
2022-11-29T00:49:56.955Z,961.32
2022-11-29T00:50:56.914Z,961.34
2022-11-29T00:51:56.865Z,961.33
2022-11-29T00:52:56.820Z,961.28
2022-11-29T00:53:56.777Z,961.31
2022-11-29T00:54:56.749Z,961.29
2022-11-29T00:55:56.678Z,961.27
2022-11-29T00:56:56.636Z,961.29
2022-11-29T00:57:56.595Z,961.28
2022-11-29T00:58:56.545Z,961.28
2022-11-29T00:59:56.502Z,961.26
2022-11-29T01:00:56.538Z,961.28
2022-11-29T01:01:56.499Z,961.29
2022-11-29T01:02:56.363Z,961.27
2022-11-29T01:03:56.317Z,961.31
2022-11-29T01:04:56.275Z,961.28
2022-11-29T01:05:56.223Z,961.31
2022-11-29T01:06:56.201Z,961.31
2022-11-29T01:07:56.189Z,961.30
2022-11-29T01:08:56.084Z,961.30
2022-11-29T01:09:56.060Z,961.30
2022-11-29T01:10:55.998Z,961.34
2022-11-29T01:11:55.948Z,961.29
2022-11-29T01:12:55.904Z,961.35
2022-11-29T01:13:55.856Z,961.33
2022-11-29T01:14:55.837Z,961.34
2022-11-29T01:15:55.786Z,961.33
2022-11-29T01:16:55.792Z,961.36
2022-11-29T01:17:55.671Z,961.35
2022-11-29T01:18:55.654Z,961.38
2022-11-29T01:19:55.613Z,961.39
2022-11-29T01:20:55.536Z,961.38
2022-11-29T01:21:55.494Z,961.39
2022-11-29T01:22:55.466Z,961.38
2022-11-29T01:23:55.395Z,961.38
2022-11-29T01:24:55.352Z,961.36
2022-11-29T01:25:55.303Z,961.37
2022-11-29T01:26:55.313Z,961.38
2022-11-29T01:27:55.215Z,961.37
2022-11-29T01:28:55.188Z,961.37
2022-11-29T01:29:55.126Z,961.36
2022-11-29T01:30:55.124Z,961.34
2022-11-29T01:31:55.026Z,961.33
2022-11-29T01:32:55.033Z,961.33
2022-11-29T01:33:54.938Z,961.30
2022-11-29T01:34:54.916Z,961.34
2022-11-29T01:35:54.844Z,961.30
2022-11-29T01:36:54.801Z,961.32
2022-11-29T01:37:54.754Z,961.35
2022-11-29T01:38:54.732Z,961.30
2022-11-29T01:39:54.662Z,961.35
2022-11-29T01:40:54.617Z,961.33
2022-11-29T01:41:54.582Z,961.38
2022-11-29T01:42:54.527Z,961.36
2022-11-29T01:43:54.479Z,961.36
2022-11-29T01:44:54.434Z,961.39
2022-11-29T01:45:54.438Z,961.34
2022-11-29T01:46:54.340Z,961.34
2022-11-29T01:47:54.328Z,961.35
2022-11-29T01:48:54.247Z,961.36
2022-11-29T01:49:54.209Z,961.32
2022-11-29T01:50:54.159Z,961.34
2022-11-29T01:51:54.117Z,961.33
2022-11-29T01:52:54.068Z,961.36
2022-11-29T01:53:54.047Z,961.36
2022-11-29T01:54:54.003Z,961.34
2022-11-29T01:55:53.948Z,961.35
2022-11-29T01:56:53.909Z,961.34
2022-11-29T01:57:53.862Z,961.37
2022-11-29T01:58:53.792Z,961.31
2022-11-29T01:59:53.744Z,961.31
2022-11-29T02:00:53.737Z,961.30
2022-11-29T02:01:53.668Z,961.28
2022-11-29T02:02:53.662Z,961.29
2022-11-29T02:03:53.563Z,961.28
2022-11-29T02:04:53.556Z,961.27
2022-11-29T02:05:53.472Z,961.28
2022-11-29T02:06:53.428Z,961.29
2022-11-29T02:07:53.455Z,961.31
2022-11-29T02:08:53.339Z,961.27
2022-11-29T02:09:53.288Z,961.28
2022-11-29T02:10:53.265Z,961.27
2022-11-29T02:11:53.204Z,961.25
2022-11-29T02:12:53.149Z,961.26
2022-11-29T02:13:53.101Z,961.25
2022-11-29T02:14:53.057Z,961.27
2022-11-29T02:15:53.072Z,961.23
2022-11-29T02:16:56.548Z,961.23
2022-11-29T02:17:52.916Z,961.25
2022-11-29T02:18:52.891Z,961.20
2022-11-29T02:19:52.826Z,961.24
2022-11-29T02:20:52.776Z,961.23
2022-11-29T02:21:52.734Z,961.20
2022-11-29T02:22:52.687Z,961.21
2022-11-29T02:23:52.671Z,961.22
2022-11-29T02:24:52.594Z,961.21
2022-11-29T02:25:52.550Z,961.22
2022-11-29T02:26:52.504Z,961.23
2022-11-29T02:27:52.460Z,961.20
2022-11-29T02:28:52.431Z,961.18
2022-11-29T02:29:52.367Z,961.19
2022-11-29T02:30:52.352Z,961.14
2022-11-29T02:31:52.270Z,961.16
2022-11-29T02:32:52.224Z,961.16
2022-11-29T02:33:52.183Z,961.16
2022-11-29T02:34:52.139Z,961.15
2022-11-29T02:35:52.092Z,961.14
2022-11-29T02:36:52.058Z,961.14
2022-11-29T02:37:51.994Z,961.17
2022-11-29T02:38:51.951Z,961.15
2022-11-29T02:39:51.917Z,961.15
2022-11-29T02:40:51.854Z,961.14
2022-11-29T02:41:51.814Z,961.17
2022-11-29T02:42:56.629Z,961.17
2022-11-29T02:43:51.718Z,961.13
2022-11-29T02:44:51.674Z,961.13
2022-11-29T02:45:51.663Z,961.21
2022-11-29T02:46:51.582Z,961.17
2022-11-29T02:47:51.539Z,961.18
2022-11-29T02:48:51.508Z,961.21
2022-11-29T02:49:51.446Z,961.17
2022-11-29T02:50:51.398Z,961.18
2022-11-29T02:51:51.355Z,961.16
2022-11-29T02:52:51.304Z,961.19
2022-11-29T02:53:51.262Z,961.18
2022-11-29T02:54:51.251Z,961.22
2022-11-29T02:55:51.189Z,961.18
2022-11-29T02:56:51.126Z,961.21
2022-11-29T02:57:51.077Z,961.20
2022-11-29T02:58:51.028Z,961.20
2022-11-29T02:59:50.996Z,961.18
2022-11-29T03:00:50.936Z,961.18
2022-11-29T03:01:50.906Z,961.18
2022-11-29T03:02:50.928Z,961.19
2022-11-29T03:03:50.795Z,961.19
2022-11-29T03:04:50.755Z,961.22
2022-11-29T03:05:50.738Z,961.24
2022-11-29T03:06:50.662Z,961.22
2022-11-29T03:07:50.708Z,961.17
2022-11-29T03:08:50.569Z,961.21
2022-11-29T03:09:50.528Z,961.22
2022-11-29T03:10:50.478Z,961.24
2022-11-29T03:11:50.433Z,961.23
2022-11-29T03:12:50.415Z,961.22
2022-11-29T03:13:50.345Z,961.24
2022-11-29T03:14:50.322Z,961.27
2022-11-29T03:15:50.297Z,961.20
2022-11-29T03:16:50.201Z,961.22
2022-11-29T03:17:50.178Z,961.21
2022-11-29T03:18:50.110Z,961.20
2022-11-29T03:19:50.066Z,961.25
2022-11-29T03:20:50.045Z,961.24
2022-11-29T03:21:49.982Z,961.24
2022-11-29T03:22:49.929Z,961.25
2022-11-29T03:23:49.905Z,961.27
2022-11-29T03:24:49.835Z,961.30
2022-11-29T03:25:49.789Z,961.28
2022-11-29T03:26:49.741Z,961.31
2022-11-29T03:27:49.698Z,961.32
2022-11-29T03:28:49.675Z,961.36
2022-11-29T03:29:49.607Z,961.30
2022-11-29T03:30:49.598Z,961.40
2022-11-29T03:31:49.538Z,961.39
2022-11-29T03:32:49.468Z,961.39
2022-11-29T03:33:49.418Z,961.40
2022-11-29T03:34:51.812Z,961.41
2022-11-29T03:35:49.351Z,961.40
2022-11-29T03:36:49.283Z,961.43
2022-11-29T03:37:49.235Z,961.42
2022-11-29T03:38:49.220Z,961.44
2022-11-29T03:39:49.147Z,961.46
2022-11-29T03:40:49.098Z,961.45
2022-11-29T03:41:49.053Z,961.41
2022-11-29T03:42:49.008Z,961.44
2022-11-29T03:43:48.979Z,961.42
2022-11-29T03:44:48.912Z,961.41
2022-11-29T03:45:48.868Z,961.39
2022-11-29T03:46:48.826Z,961.43
2022-11-29T03:47:48.776Z,961.40
2022-11-29T03:48:48.729Z,961.37
2022-11-29T03:49:48.705Z,961.45
2022-11-29T03:50:48.635Z,961.46
2022-11-29T03:51:48.594Z,961.45
2022-11-29T03:52:48.548Z,961.47
2022-11-29T03:53:48.500Z,961.49
2022-11-29T03:54:48.451Z,961.50
2022-11-29T03:55:48.431Z,961.46
2022-11-29T03:56:48.360Z,961.47
2022-11-29T03:57:48.314Z,961.51
2022-11-29T03:58:48.267Z,961.48
2022-11-29T03:59:48.340Z,961.50
2022-11-29T04:00:48.178Z,961.49
2022-11-29T04:01:48.172Z,961.47
2022-11-29T04:02:48.125Z,961.41
2022-11-29T04:03:48.037Z,961.46
2022-11-29T04:04:48.069Z,961.52
2022-11-29T04:05:47.970Z,961.46
2022-11-29T04:06:47.926Z,961.48
2022-11-29T04:07:47.881Z,961.45
2022-11-29T04:08:47.803Z,961.47
2022-11-29T04:09:47.873Z,961.51
2022-11-29T04:10:47.713Z,961.46
2022-11-29T04:11:47.671Z,961.45
2022-11-29T04:12:47.623Z,961.46
2022-11-29T04:13:47.578Z,961.46
2022-11-29T04:14:47.529Z,961.46
2022-11-29T04:15:47.606Z,961.48
2022-11-29T04:16:47.439Z,961.47
2022-11-29T04:17:47.396Z,961.46
2022-11-29T04:18:47.350Z,961.45
2022-11-29T04:19:47.311Z,961.46
2022-11-29T04:20:48.496Z,961.45
2022-11-29T04:21:47.213Z,961.42
2022-11-29T04:22:47.161Z,961.47
2022-11-29T04:23:47.121Z,961.43
2022-11-29T04:24:47.241Z,961.46
2022-11-29T04:25:47.030Z,961.43
2022-11-29T04:26:47.003Z,961.44
2022-11-29T04:27:46.934Z,961.45
2022-11-29T04:28:46.888Z,961.45
2022-11-29T04:29:46.863Z,961.43
2022-11-29T04:30:46.847Z,961.45
2022-11-29T04:31:46.750Z,961.44
2022-11-29T04:32:46.742Z,961.47
2022-11-29T04:33:46.668Z,961.47
2022-11-29T04:34:46.925Z,961.45
2022-11-29T04:35:46.578Z,961.47
2022-11-29T04:36:46.525Z,961.49
2022-11-29T04:37:46.479Z,961.51
2022-11-29T04:38:46.429Z,961.56
2022-11-29T04:39:46.385Z,961.53
2022-11-29T04:40:46.337Z,961.56
2022-11-29T04:41:46.316Z,961.54
2022-11-29T04:42:46.275Z,961.56
2022-11-29T04:43:46.201Z,961.59
2022-11-29T04:44:46.474Z,961.57
2022-11-29T04:45:46.110Z,961.56
2022-11-29T04:46:46.135Z,961.58
2022-11-29T04:47:46.017Z,961.58
2022-11-29T04:48:45.972Z,961.59
2022-11-29T04:49:45.924Z,961.60
2022-11-29T04:50:45.894Z,961.56
2022-11-29T04:51:45.837Z,961.60
2022-11-29T04:52:45.786Z,961.62
2022-11-29T04:53:45.743Z,961.61
2022-11-29T04:54:46.012Z,961.61
2022-11-29T04:55:45.648Z,961.62
2022-11-29T04:56:45.626Z,961.61
2022-11-29T04:57:45.585Z,961.66
2022-11-29T04:58:45.520Z,961.63
2022-11-29T04:59:45.474Z,961.68
2022-11-29T05:00:45.424Z,961.66
2022-11-29T05:01:45.400Z,961.65
2022-11-29T05:02:45.388Z,961.67
2022-11-29T05:03:46.897Z,961.71
2022-11-29T05:04:45.363Z,961.69
2022-11-29T05:05:45.193Z,961.68
2022-11-29T05:06:45.158Z,961.69
2022-11-29T05:07:45.145Z,961.71
2022-11-29T05:08:45.090Z,961.72
2022-11-29T05:09:45.016Z,961.73
2022-11-29T05:10:44.965Z,961.73
2022-11-29T05:11:44.945Z,961.73
2022-11-29T05:12:44.904Z,961.72
2022-11-29T05:13:44.830Z,961.73
2022-11-29T05:14:45.073Z,961.72
2022-11-29T05:15:44.801Z,961.72
2022-11-29T05:16:44.692Z,961.72
2022-11-29T05:17:44.644Z,961.76
2022-11-29T05:18:44.602Z,961.75
2022-11-29T05:19:44.592Z,961.75
2022-11-29T05:20:44.512Z,961.77
2022-11-29T05:21:44.459Z,961.79
2022-11-29T05:22:44.421Z,961.78
2022-11-29T05:23:44.374Z,961.79
2022-11-29T05:24:44.488Z,961.77
2022-11-29T05:25:44.304Z,961.79
2022-11-29T05:26:44.234Z,961.76
2022-11-29T05:27:44.209Z,961.79
2022-11-29T05:28:44.138Z,961.82
2022-11-29T05:29:44.095Z,961.79
2022-11-29T05:30:44.048Z,961.75
2022-11-29T05:31:44.026Z,961.79
2022-11-29T05:32:43.976Z,961.79
2022-11-29T05:33:43.912Z,961.81
2022-11-29T05:34:43.864Z,961.81
2022-11-29T05:35:43.816Z,961.79
2022-11-29T05:36:43.771Z,961.79
2022-11-29T05:37:43.723Z,961.79
2022-11-29T05:38:43.699Z,961.76
2022-11-29T05:39:43.631Z,961.79
2022-11-29T05:40:43.597Z,961.80
2022-11-29T05:41:43.543Z,961.79
2022-11-29T05:42:43.498Z,961.77
2022-11-29T05:43:43.452Z,961.75
2022-11-29T05:44:43.631Z,961.78
2022-11-29T05:45:43.357Z,961.81
2022-11-29T05:46:43.362Z,961.78
2022-11-29T05:47:43.262Z,961.84
2022-11-29T05:48:43.219Z,961.81
2022-11-29T05:49:43.171Z,961.82
2022-11-29T05:50:43.135Z,961.83
2022-11-29T05:51:43.100Z,961.90
2022-11-29T05:52:43.036Z,961.91
2022-11-29T05:53:42.992Z,961.89
2022-11-29T05:54:43.231Z,961.89
2022-11-29T05:55:42.897Z,961.91
2022-11-29T05:56:42.878Z,961.91
2022-11-29T05:57:42.809Z,961.96
2022-11-29T05:58:42.785Z,961.97
2022-11-29T05:59:42.742Z,961.99
2022-11-29T06:03:47.528Z,961.96
2022-11-29T06:04:47.315Z,961.94
2022-11-29T06:05:47.332Z,961.92
2022-11-29T06:06:47.043Z,961.93
2022-11-29T06:07:47.191Z,961.94
2022-11-29T06:08:47.368Z,961.97
2022-11-29T06:09:46.902Z,961.93
2022-11-29T06:10:46.965Z,961.99
2022-11-29T06:11:46.809Z,961.99
2022-11-29T06:12:46.979Z,961.97
2022-11-29T06:13:46.717Z,961.99
2022-11-29T06:14:46.883Z,961.99
2022-11-29T06:15:46.854Z,961.99
2022-11-29T06:16:46.806Z,962.00
2022-11-29T06:17:46.531Z,962.03
2022-11-29T06:18:46.612Z,962.03
2022-11-29T06:19:46.435Z,962.04
2022-11-29T06:20:46.397Z,962.06
2022-11-29T06:21:46.500Z,962.06
2022-11-29T06:22:46.547Z,962.04
2022-11-29T06:23:46.248Z,962.05
2022-11-29T06:24:46.565Z,962.06
2022-11-29T06:25:46.183Z,962.02
2022-11-29T06:26:46.137Z,962.00
2022-11-29T06:27:46.092Z,962.03
2022-11-29T06:28:46.280Z,962.05
2022-11-29T06:29:46.142Z,962.07
2022-11-29T06:30:46.189Z,962.03
2022-11-29T06:31:46.066Z,962.06
2022-11-29T06:32:45.866Z,962.09
2022-11-29T06:33:45.908Z,962.07
2022-11-29T06:34:45.987Z,962.09
2022-11-29T06:35:45.917Z,962.03
2022-11-29T06:36:45.700Z,962.06
2022-11-29T06:37:45.928Z,962.09
2022-11-29T06:38:45.599Z,962.11
2022-11-29T06:39:45.746Z,962.12
2022-11-29T06:40:45.572Z,962.13
2022-11-29T06:41:45.554Z,962.16
2022-11-29T06:42:45.386Z,962.17
2022-11-29T06:43:45.562Z,962.18
2022-11-29T06:44:45.576Z,962.16
2022-11-29T06:45:45.372Z,962.19
2022-11-29T06:46:45.570Z,962.20
2022-11-29T06:47:45.484Z,962.19
2022-11-29T06:48:45.211Z,962.18
2022-11-29T06:49:45.065Z,962.23
2022-11-29T06:50:45.310Z,962.24
2022-11-29T06:51:45.054Z,962.25
2022-11-29T06:52:45.176Z,962.27
2022-11-29T06:53:44.881Z,962.30
2022-11-29T06:54:45.355Z,962.30
2022-11-29T06:55:45.022Z,962.27
2022-11-29T06:56:44.803Z,962.31
2022-11-29T06:57:44.963Z,962.29
2022-11-29T06:58:44.773Z,962.27
2022-11-29T06:59:44.777Z,962.28
2022-11-29T07:00:44.860Z,962.31
2022-11-29T07:01:44.607Z,962.29
2022-11-29T07:02:44.468Z,962.30
2022-11-29T07:03:44.650Z,962.28
2022-11-29T07:04:46.311Z,962.31
2022-11-29T07:05:44.808Z,962.30
2022-11-29T07:06:44.301Z,962.33
2022-11-29T07:07:44.314Z,962.30
2022-11-29T07:08:44.192Z,962.35
2022-11-29T07:09:44.424Z,962.38
2022-11-29T07:10:44.136Z,962.41
2022-11-29T07:11:44.442Z,962.36
2022-11-29T07:12:44.019Z,962.38
2022-11-29T07:13:43.960Z,962.36
2022-11-29T07:14:44.080Z,962.37
2022-11-29T07:15:44.073Z,962.42
2022-11-29T07:16:43.870Z,962.39
2022-11-29T07:17:44.072Z,962.44
2022-11-29T07:18:43.924Z,962.38
2022-11-29T07:19:43.684Z,962.45
2022-11-29T07:20:43.896Z,962.44
2022-11-29T07:21:43.592Z,962.47
2022-11-29T07:22:43.700Z,962.47
2022-11-29T07:23:43.505Z,962.49
2022-11-29T07:24:44.114Z,962.50
2022-11-29T07:25:43.408Z,962.48
2022-11-29T07:26:43.367Z,962.47
2022-11-29T07:27:43.532Z,962.52
2022-11-29T07:28:43.294Z,962.50
2022-11-29T07:29:43.544Z,962.48
2022-11-29T07:30:43.189Z,962.51
2022-11-29T07:31:43.208Z,962.47
2022-11-29T07:32:48.832Z,962.50
2022-11-29T07:33:43.176Z,962.48
2022-11-29T07:34:43.250Z,962.48
2022-11-29T07:35:43.184Z,962.49
2022-11-29T07:36:43.248Z,962.51
2022-11-29T07:37:42.895Z,962.49
2022-11-29T07:38:42.995Z,962.49
2022-11-29T07:39:42.767Z,962.48
2022-11-29T07:40:43.017Z,962.47
2022-11-29T07:41:42.673Z,962.49
2022-11-29T07:42:42.831Z,962.51
2022-11-29T07:43:42.895Z,962.46
2022-11-29T07:44:43.019Z,962.48
2022-11-29T07:45:42.529Z,962.45
2022-11-29T07:46:42.904Z,962.41
2022-11-29T07:47:42.411Z,962.49
2022-11-29T07:48:42.661Z,962.48
2022-11-29T07:49:42.312Z,962.44
2022-11-29T07:50:42.469Z,962.47
2022-11-29T07:51:42.219Z,962.48
2022-11-29T07:52:42.283Z,962.49
2022-11-29T07:53:42.344Z,962.50
2022-11-29T07:54:42.421Z,962.51
2022-11-29T07:55:42.031Z,962.49
2022-11-29T07:56:42.108Z,962.51
2022-11-29T07:57:41.970Z,962.49
2022-11-29T07:58:42.219Z,962.51
2022-11-29T07:59:41.874Z,962.53
2022-11-29T08:00:42.179Z,962.54
2022-11-29T08:01:41.809Z,962.50
2022-11-29T08:02:41.991Z,962.51
2022-11-29T08:03:41.808Z,962.53
2022-11-29T08:04:41.836Z,962.51
2022-11-29T08:05:41.624Z,962.52
2022-11-29T08:06:41.770Z,962.54
2022-11-29T08:07:41.856Z,962.51
2022-11-29T08:08:44.126Z,962.55
2022-11-29T08:09:41.800Z,962.52
2022-11-29T08:10:41.367Z,962.58
2022-11-29T08:11:41.602Z,962.60
2022-11-29T08:12:41.257Z,962.58
2022-11-29T08:13:41.211Z,962.62
2022-11-29T08:14:41.418Z,962.64
2022-11-29T08:15:41.143Z,962.64
2022-11-29T08:16:41.253Z,962.70
2022-11-29T08:17:41.028Z,962.66
2022-11-29T08:18:41.247Z,962.70
2022-11-29T08:19:40.935Z,962.71
2022-11-29T08:20:41.260Z,962.71
2022-11-29T08:21:40.844Z,962.72
2022-11-29T08:22:41.068Z,962.71
2022-11-29T08:23:40.752Z,962.74
2022-11-29T08:24:40.882Z,962.72
2022-11-29T08:25:40.664Z,962.74
2022-11-29T08:26:40.891Z,962.74
2022-11-29T08:27:40.575Z,962.75
2022-11-29T08:28:40.710Z,962.75
2022-11-29T08:29:40.766Z,962.74
2022-11-29T08:30:40.719Z,962.74
2022-11-29T08:31:40.427Z,962.74
2022-11-29T08:32:40.533Z,962.77
2022-11-29T08:33:40.296Z,962.78
2022-11-29T08:34:40.745Z,962.78
2022-11-29T08:35:40.237Z,962.78
2022-11-29T08:36:40.351Z,962.80
2022-11-29T08:37:40.371Z,962.79
2022-11-29T08:38:40.095Z,962.80
2022-11-29T08:39:40.167Z,962.81
2022-11-29T08:40:39.976Z,962.78
2022-11-29T08:41:41.417Z,962.82
2022-11-29T08:42:39.886Z,962.78
2022-11-29T08:43:39.845Z,962.81
2022-11-29T08:44:39.803Z,962.79
2022-11-29T08:45:40.064Z,962.82
2022-11-29T08:46:39.710Z,962.82
2022-11-29T08:47:39.818Z,962.82
2022-11-29T08:48:39.629Z,962.79
2022-11-29T08:49:39.571Z,962.81
2022-11-29T08:50:39.842Z,962.82
2022-11-29T08:51:39.490Z,962.86
2022-11-29T08:52:39.646Z,962.85
2022-11-29T08:53:39.736Z,962.84
2022-11-29T08:54:39.662Z,962.87
2022-11-29T08:55:39.310Z,962.85
2022-11-29T08:57:41.180Z,962.86
2022-11-29T08:58:39.281Z,962.83
2022-11-29T08:59:39.149Z,962.88
2022-11-29T09:00:39.423Z,962.91
2022-11-29T09:01:39.087Z,962.89
2022-11-29T09:02:40.200Z,962.94
2022-11-29T09:03:39.186Z,962.91
2022-11-29T09:04:39.173Z,962.91
2022-11-29T09:05:38.857Z,962.91
2022-11-29T09:06:38.942Z,962.91
2022-11-29T09:07:38.804Z,962.93
2022-11-29T09:08:38.952Z,962.96
2022-11-29T09:09:38.683Z,962.92
2022-11-29T09:10:38.964Z,962.98
2022-11-29T09:11:38.627Z,962.96
2022-11-29T09:12:38.827Z,962.98
2022-11-29T09:13:38.505Z,963.02
2022-11-29T09:14:38.611Z,963.01
2022-11-29T09:15:38.411Z,963.01
2022-11-29T09:16:38.636Z,963.07
2022-11-29T09:17:38.317Z,963.03
2022-11-29T09:18:38.279Z,963.08
2022-11-29T09:19:38.230Z,963.06
2022-11-29T09:20:38.624Z,963.06
2022-11-29T09:21:38.135Z,963.07
2022-11-29T09:22:38.228Z,963.11
2022-11-29T09:23:38.066Z,963.06
2022-11-29T09:24:38.040Z,963.12
2022-11-29T09:25:37.968Z,963.15
2022-11-29T09:26:38.060Z,963.17
2022-11-29T09:27:37.870Z,963.14
2022-11-29T09:28:38.271Z,963.16
2022-11-29T09:29:37.789Z,963.18
2022-11-29T09:30:37.743Z,963.17
2022-11-29T09:31:37.747Z,963.18
2022-11-29T09:32:37.795Z,963.16
2022-11-29T09:33:37.608Z,963.16
2022-11-29T09:34:37.805Z,963.18
2022-11-29T09:35:37.661Z,963.18
2022-11-29T09:36:37.477Z,963.19
2022-11-29T09:37:37.436Z,963.22
2022-11-29T09:38:37.423Z,963.18
2022-11-29T09:39:37.349Z,963.24
2022-11-29T09:40:37.440Z,963.21
2022-11-29T09:41:37.259Z,963.20
2022-11-29T09:42:37.214Z,963.18
2022-11-29T09:43:37.257Z,963.17
2022-11-29T09:44:37.321Z,963.21
2022-11-29T09:45:37.284Z,963.19
2022-11-29T09:46:37.038Z,963.20
2022-11-29T09:47:37.081Z,963.19
2022-11-29T09:48:37.095Z,963.20
2022-11-29T09:49:36.939Z,963.20
2022-11-29T09:50:36.897Z,963.20
2022-11-29T09:51:41.169Z,963.19
2022-11-29T09:52:37.124Z,963.19
2022-11-29T09:53:36.761Z,963.23
2022-11-29T09:54:36.683Z,963.25
2022-11-29T09:55:36.780Z,963.20
2022-11-29T09:56:36.736Z,963.23
2022-11-29T09:57:36.552Z,963.23
2022-11-29T09:58:36.546Z,963.22
2022-11-29T09:59:36.466Z,963.23
2022-11-29T10:00:36.425Z,963.20
2022-11-29T10:01:36.471Z,963.19
2022-11-29T10:02:57.468Z,963.18
2022-11-29T10:03:36.351Z,963.17
2022-11-29T10:04:36.439Z,963.19
2022-11-29T10:05:36.391Z,963.22
2022-11-29T10:06:36.173Z,963.21
2022-11-29T10:07:36.229Z,963.22
2022-11-29T10:08:36.066Z,963.18
2022-11-29T10:09:36.218Z,963.16
2022-11-29T10:10:36.013Z,963.20
2022-11-29T10:11:36.026Z,963.20
2022-11-29T10:12:35.903Z,963.16
2022-11-29T10:13:36.245Z,963.16
2022-11-29T10:14:35.812Z,963.15
2022-11-29T10:15:35.857Z,963.14
2022-11-29T10:16:35.742Z,963.13
2022-11-29T10:17:35.880Z,963.15
2022-11-29T10:18:35.636Z,963.16
2022-11-29T10:19:35.683Z,963.16
2022-11-29T10:20:40.466Z,963.17
2022-11-29T10:21:35.691Z,963.16
2022-11-29T10:22:35.454Z,963.17
2022-11-29T10:23:35.706Z,963.15
2022-11-29T10:24:35.366Z,963.13
2022-11-29T10:25:35.514Z,963.15
2022-11-29T10:26:35.612Z,963.16
2022-11-29T10:27:35.330Z,963.17
2022-11-29T10:28:35.192Z,963.13
2022-11-29T10:29:35.543Z,963.15
2022-11-29T10:30:35.167Z,963.16
2022-11-29T10:31:35.169Z,963.11
2022-11-29T10:32:35.012Z,963.14
2022-11-29T10:33:35.167Z,963.13
2022-11-29T10:34:34.926Z,963.13
2022-11-29T10:35:34.976Z,963.16
2022-11-29T10:36:35.030Z,963.16
2022-11-29T10:37:34.801Z,963.14
2022-11-29T10:38:34.789Z,963.12
2022-11-29T10:39:34.719Z,963.14
2022-11-29T10:40:34.808Z,963.14
2022-11-29T10:41:34.620Z,963.13
2022-11-29T10:42:34.821Z,963.12
2022-11-29T10:43:34.530Z,963.10
2022-11-29T10:44:34.632Z,963.14
2022-11-29T10:45:34.444Z,963.15
2022-11-29T10:46:34.506Z,963.12
2022-11-29T10:47:34.357Z,963.10
2022-11-29T10:48:34.661Z,963.12
2022-11-29T10:49:34.263Z,963.10
2022-11-29T10:50:34.261Z,963.08
2022-11-29T10:51:34.221Z,963.10
2022-11-29T10:52:34.288Z,963.09
2022-11-29T10:53:34.092Z,963.09
2022-11-29T10:54:34.295Z,963.09
2022-11-29T10:55:34.004Z,963.07
2022-11-29T10:56:34.102Z,963.09
2022-11-29T10:57:33.928Z,963.06
2022-11-29T10:58:34.120Z,963.07
2022-11-29T10:59:33.851Z,963.08
2022-11-29T11:00:33.930Z,963.07
2022-11-29T11:01:34.001Z,963.07
2022-11-29T11:02:33.735Z,963.08
2022-11-29T11:03:33.651Z,963.05
2022-11-29T11:04:33.750Z,963.04
2022-11-29T11:05:33.601Z,963.06
2022-11-29T11:06:33.766Z,963.07
2022-11-29T11:07:33.598Z,963.04
2022-11-29T11:08:33.436Z,963.01
2022-11-29T11:09:33.585Z,963.02
2022-11-29T11:10:33.441Z,963.02
2022-11-29T11:11:33.400Z,963.02
2022-11-29T11:12:33.262Z,963.00
2022-11-29T11:13:33.222Z,963.00
2022-11-29T11:14:33.211Z,963.00
2022-11-29T11:15:33.120Z,963.01
2022-11-29T11:16:37.412Z,963.04
2022-11-29T11:17:33.283Z,963.02
2022-11-29T11:18:33.238Z,963.00
2022-11-29T11:19:33.045Z,963.00
2022-11-29T11:20:32.948Z,963.03
2022-11-29T11:21:33.061Z,963.01
2022-11-29T11:22:32.816Z,963.01
2022-11-29T11:23:32.865Z,963.00
2022-11-29T11:24:32.923Z,963.03
2022-11-29T11:25:32.689Z,963.02
2022-11-29T11:26:32.638Z,963.00
2022-11-29T11:27:32.693Z,963.00
2022-11-29T11:28:32.554Z,963.00
2022-11-29T11:29:32.703Z,962.99
2022-11-29T11:30:32.599Z,962.99
2022-11-29T11:31:32.417Z,963.01
2022-11-29T11:32:32.576Z,963.06
2022-11-29T11:33:32.322Z,962.99
2022-11-29T11:34:32.538Z,963.02
2022-11-29T11:35:32.235Z,963.02
2022-11-29T11:36:32.349Z,963.00
2022-11-29T11:37:32.151Z,963.06
2022-11-29T11:38:32.158Z,963.00
2022-11-29T11:39:32.086Z,963.02
2022-11-29T11:40:32.413Z,963.05
2022-11-29T11:41:31.972Z,963.03
2022-11-29T11:42:32.187Z,963.05
2022-11-29T11:43:31.989Z,963.02
2022-11-29T11:44:48.020Z,963.08
2022-11-29T11:45:31.797Z,963.05
2022-11-29T11:46:31.902Z,963.01
2022-11-29T11:47:31.869Z,962.97
2022-11-29T11:48:31.818Z,962.97
2022-11-29T11:49:31.829Z,962.99
2022-11-29T11:50:31.574Z,963.00
2022-11-29T11:51:31.654Z,962.97
2022-11-29T11:52:34.751Z,963.00
2022-11-29T11:53:31.857Z,963.00
2022-11-29T11:54:31.400Z,963.00
2022-11-29T11:55:31.380Z,963.06
2022-11-29T11:56:31.312Z,963.05
2022-11-29T11:57:31.480Z,963.05
2022-11-29T11:58:31.221Z,963.04
2022-11-29T11:59:31.291Z,963.03
2022-11-29T12:01:01.796Z,963.05
2022-11-29T12:01:31.091Z,963.05
2022-11-29T12:02:31.209Z,963.03
2022-11-29T12:03:31.125Z,963.08
2022-11-29T12:04:31.127Z,963.08
2022-11-29T12:05:30.942Z,963.06
2022-11-29T12:06:30.926Z,963.11
2022-11-29T12:08:05.663Z,963.08
2022-11-29T12:08:30.991Z,963.11
2022-11-29T12:09:31.000Z,963.15
2022-11-29T12:10:30.751Z,963.13
2022-11-29T12:11:30.675Z,963.15
2022-11-29T12:12:30.775Z,963.16
2022-11-29T12:13:30.777Z,963.16
2022-11-29T12:14:30.516Z,963.18
2022-11-29T12:15:30.619Z,963.17
2022-11-29T12:16:30.428Z,963.22
2022-11-29T12:17:30.803Z,963.20
2022-11-29T12:18:30.364Z,963.20
2022-11-29T12:19:30.298Z,963.19
2022-11-29T12:20:30.257Z,963.17
2022-11-29T12:21:30.425Z,963.17
2022-11-29T12:22:30.170Z,963.15
2022-11-29T12:23:30.274Z,963.19
2022-11-29T12:24:30.297Z,963.17
2022-11-29T12:25:30.059Z,963.17
2022-11-29T12:26:55.744Z,963.18
2022-11-29T12:27:30.131Z,963.15
2022-11-29T12:28:30.072Z,963.17
2022-11-29T12:29:30.838Z,963.16
2022-11-29T12:30:29.877Z,963.19
2022-11-29T12:31:29.970Z,963.22